Time;durP1;ratioP1;P1;durP2;ratioP2;P2;SDS_P1;SDS_P2;PMS_P1;PMS_P2;Temp;Humidity;BMP_temperature;BMP_pressure;BME280_temperature;BME280_humidity;BME280_pressure;Samples;Min_cycle;Max_cycle;Signal;HPM_P1;HPM_P2
2021/07/07 00:00:10;;;;;;;2.30;1.70;;;23.60;99.90;;;;;;5011180;28;20439;-51
2021/07/07 00:02:37;;;;;;;2.40;2.00;;;23.60;99.90;;;;;;5011264;28;20450;-52
2021/07/07 00:05:06;;;;;;;3.00;1.53;;;23.60;99.90;;;;;;5011354;28;20482;-51
2021/07/07 00:07:33;;;;;;;3.20;1.80;;;23.60;99.90;;;;;;5011394;28;20971;-51
2021/07/07 00:10:00;;;;;;;3.17;1.50;;;23.50;99.90;;;;;;5011131;28;20431;-51
2021/07/07 00:12:27;;;;;;;2.60;1.73;;;23.50;99.90;;;;;;5011426;28;20460;-52
2021/07/07 00:14:54;;;;;;;3.30;2.00;;;23.40;99.90;;;;;;5011389;28;20440;-52
2021/07/07 00:17:20;;;;;;;2.23;1.73;;;23.40;99.90;;;;;;5011225;28;20522;-52
2021/07/07 00:19:47;;;;;;;6.23;1.53;;;23.40;99.90;;;;;;5010996;28;20442;-52
2021/07/07 00:22:15;;;;;;;3.23;1.73;;;23.40;99.90;;;;;;5011301;28;20885;-51
2021/07/07 00:24:42;;;;;;;3.23;2.07;;;23.30;99.90;;;;;;5011034;28;20999;-51
2021/07/07 00:27:09;;;;;;;2.23;1.60;;;23.30;99.90;;;;;;5011046;28;20492;-51
2021/07/07 00:29:35;;;;;;;3.60;1.80;;;23.30;99.90;;;;;;4993170;28;20553;-51
2021/07/07 00:32:02;;;;;;;3.40;1.80;;;23.30;99.90;;;;;;5010966;28;20455;-51
2021/07/07 00:34:29;;;;;;;3.97;1.57;;;23.20;99.90;;;;;;5010753;28;20523;-51
2021/07/07 00:36:56;;;;;;;2.20;1.77;;;23.20;99.90;;;;;;5011108;28;20435;-51
2021/07/07 00:39:24;;;;;;;3.33;1.70;;;23.20;99.90;;;;;;5010813;28;20445;-51
2021/07/07 00:41:50;;;;;;;2.37;1.90;;;23.10;99.90;;;;;;5010966;28;20458;-52
2021/07/07 00:44:17;;;;;;;3.13;1.60;;;23.10;99.90;;;;;;5010984;28;20481;-51
2021/07/07 00:46:45;;;;;;;3.30;1.60;;;23.00;99.90;;;;;;5011111;28;20623;-52
2021/07/07 00:49:13;;;;;;;4.90;1.90;;;23.00;99.90;;;;;;5014040;28;20450;-51
2021/07/07 00:51:40;;;;;;;4.20;2.33;;;23.00;99.90;;;;;;5014728;28;20446;-51
2021/07/07 00:54:08;;;;;;;3.83;1.67;;;23.00;99.90;;;;;;5014779;28;20441;-52
2021/07/07 00:56:37;;;;;;;1.90;1.50;;;22.90;99.90;;;;;;5014827;28;20430;-52
2021/07/07 00:59:04;;;;;;;2.63;2.10;;;22.90;99.90;;;;;;5014594;28;20532;-51
2021/07/07 01:01:31;;;;;;;3.30;2.10;;;22.90;99.90;;;;;;5014528;28;20456;-52
2021/07/07 01:03:57;;;;;;;2.50;1.70;;;22.90;99.90;;;;;;5015110;28;20469;-52
2021/07/07 01:06:24;;;;;;;2.03;1.50;;;22.80;99.90;;;;;;5015166;28;20443;-52
2021/07/07 01:08:51;;;;;;;2.70;1.70;;;22.80;99.90;;;;;;5015157;28;20441;-51
2021/07/07 01:11:17;;;;;;;2.43;2.23;;;22.70;99.90;;;;;;5015277;28;20430;-51
2021/07/07 01:13:45;;;;;;;3.00;1.40;;;22.70;99.90;;;;;;5015019;28;20836;-51
2021/07/07 01:16:12;;;;;;;2.40;1.63;;;22.70;99.90;;;;;;5014887;28;20433;-52
2021/07/07 01:18:39;;;;;;;3.87;1.70;;;22.70;99.90;;;;;;5014602;28;20432;-52
2021/07/07 01:21:05;;;;;;;4.13;1.70;;;22.60;99.90;;;;;;5014845;28;20424;-52
2021/07/07 01:23:34;;;;;;;3.97;1.70;;;22.60;99.90;;;;;;5014697;28;20460;-51
2021/07/07 01:26:03;;;;;;;3.00;1.67;;;22.60;99.90;;;;;;5014663;28;20480;-51
2021/07/07 01:28:31;;;;;;;2.13;1.63;;;22.60;99.90;;;;;;5014371;28;20437;-51
2021/07/07 01:30:58;;;;;;;6.60;2.37;;;22.50;99.90;;;;;;5014690;28;20446;-51
2021/07/07 01:33:24;;;;;;;3.17;1.83;;;22.60;99.90;;;;;;4996847;28;20499;-51
2021/07/07 01:35:51;;;;;;;2.73;1.80;;;22.50;99.90;;;;;;5014478;28;20434;-51
2021/07/07 01:38:18;;;;;;;3.43;2.20;;;22.50;99.90;;;;;;5014135;28;20805;-52
2021/07/07 01:40:46;;;;;;;2.57;1.90;;;22.40;99.90;;;;;;5014479;28;20457;-51
2021/07/07 01:43:13;;;;;;;2.73;2.20;;;22.40;99.90;;;;;;5014350;28;20451;-51
2021/07/07 01:45:39;;;;;;;3.50;1.90;;;22.40;99.90;;;;;;5014328;28;20488;-51
2021/07/07 01:48:06;;;;;;;2.00;1.80;;;22.30;99.90;;;;;;5014011;28;20448;-51
2021/07/07 01:50:33;;;;;;;3.90;2.07;;;22.30;99.90;;;;;;5014235;28;20444;-52
2021/07/07 01:53:00;;;;;;;2.83;2.10;;;22.30;99.90;;;;;;5014074;28;20997;-51
2021/07/07 01:55:26;;;;;;;2.60;2.00;;;22.30;99.90;;;;;;5014127;28;20435;-52
2021/07/07 01:57:55;;;;;;;3.70;2.30;;;22.20;99.90;;;;;;5014293;28;20424;-51
2021/07/07 02:00:25;;;;;;;2.20;2.00;;;22.20;99.90;;;;;;5012552;28;20447;-52
2021/07/07 02:02:53;;;;;;;5.33;2.33;;;22.20;99.90;;;;;;5013875;28;20459;-52
2021/07/07 02:05:23;;;;;;;2.13;1.70;;;22.20;99.90;;;;;;5014148;28;20494;-51
2021/07/07 02:07:50;;;;;;;2.50;1.70;;;22.20;99.90;;;;;;5012696;28;20455;-52
2021/07/07 02:10:18;;;;;;;3.03;2.10;;;22.10;99.90;;;;;;5013643;28;20442;-52
2021/07/07 02:12:45;;;;;;;3.60;2.10;;;22.20;99.90;;;;;;5013880;28;20812;-52
2021/07/07 02:15:16;;;;;;;2.90;2.13;;;22.10;99.90;;;;;;5012470;28;21084;-51
2021/07/07 02:17:45;;;;;;;4.97;2.37;;;22.10;99.90;;;;;;5014330;28;20436;-51
2021/07/07 02:20:13;;;;;;;3.77;2.33;;;22.00;99.90;;;;;;5013392;28;20514;-51
2021/07/07 02:22:41;;;;;;;3.30;2.03;;;22.00;99.90;;;;;;5013698;28;20456;-52
2021/07/07 02:25:10;;;;;;;3.33;1.93;;;22.00;99.90;;;;;;5013532;28;20486;-51
2021/07/07 02:27:37;;;;;;;2.50;1.87;;;22.00;99.90;;;;;;5013790;28;20451;-52
2021/07/07 02:30:05;;;;;;;5.60;2.70;;;21.80;99.90;;;;;;5012564;28;20451;-51
2021/07/07 02:32:33;;;;;;;2.67;2.07;;;22.00;99.90;;;;;;5012612;28;20812;-51
2021/07/07 02:34:59;;;;;;;2.87;2.33;;;21.90;99.90;;;;;;5013285;28;20798;-52
2021/07/07 02:37:26;;;;;;;4.30;2.10;;;22.00;99.90;;;;;;5013433;28;20442;-52
2021/07/07 02:39:53;;;;;;;3.67;1.70;;;21.90;99.90;;;;;;5013045;28;20447;-51
2021/07/07 02:42:19;;;;;;;4.47;2.60;;;21.80;99.90;;;;;;5013353;28;20490;-51
2021/07/07 02:44:46;;;;;;;2.67;2.47;;;21.90;99.90;;;;;;5013109;28;20480;-51
2021/07/07 02:47:13;;;;;;;4.00;2.80;;;21.50;99.90;;;;;;5013397;28;20437;-51
2021/07/07 02:49:41;;;;;;;4.07;2.03;;;21.60;99.90;;;;;;5012891;28;20814;-52
2021/07/07 02:52:07;;;;;;;3.60;2.40;;;22.40;99.90;;;;;;5012908;28;21003;-52
2021/07/07 02:54:34;;;;;;;2.63;2.43;;;21.80;99.90;;;;;;5013606;28;20935;-52
2021/07/07 02:57:01;;;;;;;2.90;2.27;;;21.70;99.90;;;;;;5013096;28;20439;-52
2021/07/07 02:59:27;;;;;;;2.40;2.20;;;21.70;99.90;;;;;;5012639;28;20816;-51
2021/07/07 03:01:54;;;;;;;3.50;2.20;;;21.70;99.90;;;;;;5013086;28;21034;-52
2021/07/07 03:04:20;;;;;;;2.90;2.40;;;21.50;99.90;;;;;;5013204;28;20447;-51
2021/07/07 03:06:49;;;;;;;2.90;2.23;;;21.30;99.90;;;;;;5013144;28;20424;-52
2021/07/07 03:09:15;;;;;;;4.07;2.50;;;21.60;99.90;;;;;;5012293;28;20439;-52
2021/07/07 03:11:42;;;;;;;4.13;2.03;;;21.60;99.90;;;;;;5012895;28;20472;-52
2021/07/07 03:14:09;;;;;;;6.53;2.70;;;21.30;99.90;;;;;;5012863;28;20952;-51
2021/07/07 03:16:35;;;;;;;4.10;2.50;;;21.30;99.90;;;;;;5012493;28;20438;-52
2021/07/07 03:19:02;;;;;;;5.50;2.60;;;21.50;99.90;;;;;;5012387;28;20440;-52
2021/07/07 03:21:29;;;;;;;4.70;2.57;;;21.50;99.90;;;;;;5012625;28;20806;-52
2021/07/07 03:23:56;;;;;;;3.67;2.97;;;21.50;99.90;;;;;;5012460;28;20939;-52
2021/07/07 03:26:23;;;;;;;5.40;2.60;;;21.40;99.90;;;;;;4994736;28;20485;-52
2021/07/07 03:28:50;;;;;;;5.43;3.00;;;21.40;99.90;;;;;;5012193;28;20438;-52
2021/07/07 03:31:16;;;;;;;3.17;2.30;;;21.40;99.90;;;;;;5012526;28;20435;-51
2021/07/07 03:33:43;;;;;;;2.73;2.00;;;21.40;99.90;;;;;;5012370;28;20962;-52
2021/07/07 03:36:10;;;;;;;6.77;2.67;;;21.40;99.90;;;;;;5012352;28;20755;-52
2021/07/07 03:38:37;;;;;;;5.10;3.17;;;21.30;99.90;;;;;;5012035;28;20480;-52
2021/07/07 03:41:05;;;;;;;4.07;2.90;;;21.10;99.90;;;;;;5012293;28;20438;-52
2021/07/07 03:43:31;;;;;;;3.03;2.30;;;21.30;99.90;;;;;;5011959;28;20469;-52
2021/07/07 03:45:58;;;;;;;7.40;2.63;;;21.30;99.90;;;;;;5012048;28;20575;-52
2021/07/07 03:48:25;;;;;;;4.40;2.90;;;21.30;99.90;;;;;;5011859;28;20440;-51
2021/07/07 03:50:51;;;;;;;5.53;3.37;;;21.30;99.90;;;;;;5012042;28;20435;-52
2021/07/07 03:53:18;;;;;;;5.80;3.20;;;21.30;99.90;;;;;;5011780;28;20462;-52
2021/07/07 03:55:45;;;;;;;3.73;3.40;;;21.20;99.90;;;;;;5012019;28;20438;-52
2021/07/07 03:58:13;;;;;;;4.73;3.97;;;20.90;99.90;;;;;;5011410;28;20438;-52
2021/07/07 04:00:39;;;;;;;4.90;2.93;;;21.20;99.90;;;;;;5011909;28;20435;-52
2021/07/07 04:03:07;;;;;;;4.50;2.77;;;21.20;99.90;;;;;;5011985;28;20841;-52
2021/07/07 04:05:34;;;;;;;4.60;3.00;;;21.00;99.90;;;;;;5011849;28;20482;-52
2021/07/07 04:08:01;;;;;;;4.97;3.57;;;21.10;99.90;;;;;;5011572;28;20441;-52
2021/07/07 04:10:28;;;;;;;3.80;2.73;;;21.10;99.90;;;;;;5011889;28;20446;-52
2021/07/07 04:12:54;;;;;;;3.77;2.60;;;21.20;99.90;;;;;;5011833;28;20461;-53
2021/07/07 04:15:24;;;;;;;3.73;3.13;;;21.20;99.90;;;;;;5011694;28;21013;-51
2021/07/07 04:17:50;;;;;;;5.83;3.17;;;21.20;99.90;;;;;;5011738;28;20445;-52
2021/07/07 04:20:19;;;;;;;3.30;3.00;;;21.10;99.90;;;;;;5011430;28;20441;-52
2021/07/07 04:22:46;;;;;;;5.23;3.60;;;21.20;99.90;;;;;;5012555;28;20449;-52
2021/07/07 04:25:15;;;;;;;6.90;2.83;;;21.20;99.90;;;;;;5015727;28;20561;-52
2021/07/07 04:27:42;;;;;;;3.10;2.43;;;21.00;99.90;;;;;;5015512;28;20438;-52
2021/07/07 04:30:12;;;;;;;6.40;3.33;;;20.90;99.90;;;;;;5015487;28;20435;-52
2021/07/07 04:32:40;;;;;;;4.63;2.67;;;21.20;99.90;;;;;;5015637;28;20981;-52
2021/07/07 04:35:09;;;;;;;6.23;3.30;;;21.10;99.90;;;;;;4997862;28;20476;-53
2021/07/07 04:37:36;;;;;;;6.40;3.40;;;21.20;99.90;;;;;;5015541;28;20444;-52
2021/07/07 04:40:04;;;;;;;3.80;2.90;;;21.20;99.90;;;;;;5015160;28;20465;-52
2021/07/07 04:42:31;;;;;;;4.60;3.00;;;21.20;99.90;;;;;;5015339;28;20457;-52
2021/07/07 04:44:57;;;;;;;3.70;2.53;;;21.20;99.90;;;;;;5015341;28;20495;-52
2021/07/07 04:47:24;;;;;;;9.83;4.43;;;21.20;99.90;;;;;;5015402;28;20433;-52
2021/07/07 04:49:52;;;;;;;4.87;4.00;;;21.20;99.90;;;;;;5014831;28;20442;-52
2021/07/07 04:52:19;;;;;;;7.40;3.70;;;21.20;99.90;;;;;;5041066;22;20943;-53
2021/07/07 04:54:45;;;;;;;4.37;3.40;;;21.00;99.90;;;;;;5074398;28;20519;-54
2021/07/07 04:57:12;;;;;;;6.40;3.60;;;21.10;99.90;;;;;;5074058;28;20425;-54
2021/07/07 04:59:38;;;;;;;5.43;3.60;;;21.00;99.90;;;;;;5073858;28;20440;-52
2021/07/07 05:02:05;;;;;;;7.57;4.93;;;21.20;99.90;;;;;;5073885;28;20451;-52
2021/07/07 05:04:32;;;;;;;5.77;3.30;;;21.00;99.90;;;;;;5074104;28;20435;-53
2021/07/07 05:07:00;;;;;;;4.67;3.27;;;21.10;99.90;;;;;;5073976;28;20479;-54
2021/07/07 05:09:27;;;;;;;5.23;3.30;;;21.10;99.90;;;;;;5073964;28;20523;-54
2021/07/07 05:11:53;;;;;;;4.77;4.00;;;21.00;99.90;;;;;;5073782;28;20885;-54
2021/07/07 05:14:20;;;;;;;5.93;3.27;;;21.00;99.90;;;;;;5074003;28;20990;-54
2021/07/07 05:16:47;;;;;;;7.37;3.90;;;21.00;99.90;;;;;;5073522;28;20540;-54
2021/07/07 05:19:14;;;;;;;5.83;3.73;;;21.00;99.90;;;;;;5054908;28;20451;-54
2021/07/07 05:21:42;;;;;;;6.33;3.57;;;20.90;99.90;;;;;;5073182;28;20644;-53
2021/07/07 05:24:10;;;;;;;6.50;3.77;;;20.90;99.90;;;;;;5073582;28;20586;-53
2021/07/07 05:26:37;;;;;;;6.50;4.53;;;20.90;99.90;;;;;;5073371;28;20604;-53
2021/07/07 05:29:04;;;;;;;7.10;3.60;;;20.90;99.90;;;;;;5072494;28;20460;-53
2021/07/07 05:31:31;;;;;;;5.67;3.77;;;20.90;99.90;;;;;;5072966;28;20456;-54
2021/07/07 05:33:57;;;;;;;5.00;3.10;;;20.90;99.90;;;;;;5072702;28;20452;-54
2021/07/07 05:36:24;;;;;;;10.37;4.47;;;20.90;99.90;;;;;;5072989;28;20447;-54
2021/07/07 05:38:51;;;;;;;6.93;3.60;;;20.80;99.90;;;;;;5054715;28;20466;-53
2021/07/07 05:41:19;;;;;;;6.03;4.00;;;20.90;99.90;;;;;;5072896;28;20430;-53
2021/07/07 05:43:47;;;;;;;5.47;3.63;;;20.90;99.90;;;;;;5073034;28;20446;-54
2021/07/07 05:46:13;;;;;;;6.67;3.63;;;21.00;99.90;;;;;;5072983;28;21006;-53
2021/07/07 05:48:40;;;;;;;6.43;4.20;;;21.00;99.90;;;;;;5072431;28;20439;-53
2021/07/07 05:51:07;;;;;;;6.00;3.70;;;21.10;99.90;;;;;;5054576;28;20978;-54
2021/07/07 05:53:33;;;;;;;10.53;4.77;;;21.10;99.90;;;;;;5072185;28;20605;-54
2021/07/07 05:56:00;;;;;;;10.30;4.40;;;21.10;99.90;;;;;;5072652;28;20435;-54
2021/07/07 05:58:28;;;;;;;8.73;4.53;;;21.10;99.90;;;;;;5072316;28;20445;-55
2021/07/07 06:00:55;;;;;;;9.50;3.90;;;20.80;99.90;;;;;;5072661;28;20431;-55
2021/07/07 06:03:21;;;;;;;6.63;5.37;;;21.00;99.90;;;;;;5072806;28;20471;-54
2021/07/07 06:05:48;;;;;;;6.13;3.50;;;21.00;99.90;;;;;;5054389;28;20562;-54
2021/07/07 06:08:15;;;;;;;5.23;3.53;;;21.00;99.90;;;;;;5072278;28;20430;-54
2021/07/07 06:10:43;;;;;;;5.13;3.13;;;21.10;99.90;;;;;;5072412;28;20442;-54
2021/07/07 06:13:10;;;;;;;5.60;3.37;;;21.00;99.90;;;;;;5072249;28;20449;-58
2021/07/07 06:15:38;;;;;;;6.17;3.43;;;21.00;99.90;;;;;;5072579;28;20528;-54
2021/07/07 06:18:05;;;;;;;9.43;3.80;;;21.00;99.90;;;;;;5071924;28;20907;-53
2021/07/07 06:20:32;;;;;;;5.43;3.40;;;20.60;99.90;;;;;;5071972;28;20907;-53
2021/07/07 06:22:59;;;;;;;7.53;4.03;;;20.70;99.90;;;;;;5072252;28;20447;-53
2021/07/07 06:25:27;;;;;;;7.27;4.80;;;21.00;99.90;;;;;;5071836;28;20518;-54
2021/07/07 06:27:54;;;;;;;5.23;3.80;;;20.90;99.90;;;;;;5071932;28;20467;-54
2021/07/07 06:30:24;;;;;;;7.20;3.70;;;21.00;99.90;;;;;;5071670;28;20478;-54
2021/07/07 06:32:53;;;;;;;7.90;4.27;;;21.00;99.90;;;;;;5053666;28;20467;-54
2021/07/07 06:35:21;;;;;;;9.80;3.83;;;21.00;99.90;;;;;;5071658;28;20757;-54
2021/07/07 06:37:49;;;;;;;8.63;4.33;;;20.90;99.90;;;;;;5071190;28;20422;-53
2021/07/07 06:40:17;;;;;;;6.53;4.03;;;21.00;99.90;;;;;;5071493;28;20513;-53
2021/07/07 06:42:44;;;;;;;10.47;4.63;;;20.90;99.90;;;;;;5071287;28;21048;-55
2021/07/07 06:45:13;;;;;;;8.27;5.50;;;21.10;99.90;;;;;;5070606;28;20573;-55
2021/07/07 06:47:40;;;;;;;6.03;4.77;;;21.00;99.90;;;;;;5053331;28;20479;-54
2021/07/07 06:50:10;;;;;;;9.20;4.67;;;21.00;99.90;;;;;;5052936;28;20457;-55
2021/07/07 06:52:36;;;;;;;8.97;4.70;;;20.90;99.90;;;;;;5070859;28;21086;-55
2021/07/07 06:55:04;;;;;;;9.23;4.83;;;21.00;99.90;;;;;;5070945;28;20941;-55
2021/07/07 06:57:34;;;;;;;8.73;3.70;;;21.00;99.90;;;;;;5070953;28;20430;-55
2021/07/07 07:00:02;;;;;;;7.00;3.90;;;20.90;99.90;;;;;;5071624;28;20915;-55
2021/07/07 07:02:30;;;;;;;7.80;3.93;;;20.90;99.90;;;;;;5071299;28;20463;-55
2021/07/07 07:04:57;;;;;;;7.57;3.83;;;21.00;99.90;;;;;;5071293;28;20440;-55
2021/07/07 07:07:26;;;;;;;5.50;3.40;;;20.90;99.90;;;;;;5070949;28;20485;-54
2021/07/07 07:09:52;;;;;;;4.60;2.73;;;20.90;99.90;;;;;;5071035;28;20919;-54
2021/07/07 07:12:19;;;;;;;7.50;3.47;;;20.90;99.90;;;;;;5070828;28;20501;-54
2021/07/07 07:14:49;;;;;;;10.33;4.13;;;20.90;99.90;;;;;;5071757;28;20426;-54
2021/07/07 07:17:16;;;;;;;4.80;3.50;;;20.90;99.90;;;;;;5071075;28;20431;-55
2021/07/07 07:19:43;;;;;;;7.17;3.37;;;20.90;99.90;;;;;;5070560;28;20434;-54
2021/07/07 07:22:10;;;;;;;5.77;2.80;;;20.80;99.90;;;;;;5071038;28;20897;-54
2021/07/07 07:24:38;;;;;;;5.93;3.20;;;20.90;99.90;;;;;;5070691;28;20441;-54
2021/07/07 07:27:05;;;;;;;4.83;3.00;;;20.70;99.90;;;;;;5070916;28;20863;-54
2021/07/07 07:29:32;;;;;;;4.07;2.90;;;20.90;99.90;;;;;;5070221;28;20431;-53
2021/07/07 07:31:58;;;;;;;5.60;2.73;;;20.90;99.90;;;;;;5052375;28;20459;-53
2021/07/07 07:34:25;;;;;;;5.20;3.50;;;20.90;99.90;;;;;;5070374;28;20938;-52
2021/07/07 07:36:58;;;;;;;7.23;3.27;;;20.70;99.90;;;;;;5070714;28;20435;-53
2021/07/07 07:39:26;;;;;;;6.80;4.20;;;20.90;99.90;;;;;;5070065;28;20423;-52
2021/07/07 07:41:54;;;;;;;6.00;3.47;;;20.80;99.90;;;;;;5070286;28;20432;-53
2021/07/07 07:44:21;;;;;;;7.93;4.27;;;20.90;99.90;;;;;;5070541;28;21041;-53
2021/07/07 07:46:48;;;;;;;4.73;3.40;;;20.90;99.90;;;;;;5070546;28;20796;-53
2021/07/07 07:49:14;;;;;;;7.77;4.07;;;20.80;99.90;;;;;;5070327;28;20525;-53
2021/07/07 07:51:41;;;;;;;9.33;4.77;;;20.90;99.90;;;;;;5070574;28;20872;-52
2021/07/07 07:54:08;;;;;;;9.27;4.47;;;20.90;99.90;;;;;;5070162;28;20961;-54
2021/07/07 07:56:34;;;;;;;6.30;3.37;;;20.90;99.90;;;;;;5070521;28;20444;-54
2021/07/07 07:59:02;;;;;;;6.53;3.57;;;20.90;99.90;;;;;;5069828;28;20990;-54
2021/07/07 08:01:29;;;;;;;4.70;3.97;;;20.80;99.90;;;;;;5070471;28;20427;-54
2021/07/07 08:03:56;;;;;;;7.00;3.73;;;20.90;99.90;;;;;;5070388;28;20498;-54
2021/07/07 08:06:22;;;;;;;4.93;3.07;;;20.90;99.90;;;;;;5069985;28;20975;-53
2021/07/07 08:08:49;;;;;;;5.73;3.73;;;21.00;99.90;;;;;;5069875;28;20552;-53
2021/07/07 08:11:15;;;;;;;8.03;4.47;;;21.00;99.90;;;;;;5070105;28;20911;-53
2021/07/07 08:13:42;;;;;;;5.30;3.23;;;21.00;99.90;;;;;;5070179;28;20562;-53
2021/07/07 08:16:10;;;;;;;5.30;3.27;;;21.10;99.90;;;;;;5070293;28;20463;-52
2021/07/07 08:18:37;;;;;;;5.10;3.13;;;21.20;99.90;;;;;;5069667;28;20428;-53
2021/07/07 08:21:04;;;;;;;4.93;3.90;;;21.00;99.90;;;;;;5051379;28;20456;-52
2021/07/07 08:23:31;;;;;;;5.77;4.00;;;21.30;99.90;;;;;;5069841;28;20452;-53
2021/07/07 08:25:57;;;;;;;5.33;3.70;;;21.30;99.90;;;;;;5070216;28;21007;-54
2021/07/07 08:28:24;;;;;;;7.60;4.87;;;21.40;99.90;;;;;;5069625;28;20603;-52
2021/07/07 08:30:51;;;;;;;9.93;6.13;;;21.40;99.90;;;;;;5070112;28;20433;-55
2021/07/07 08:33:19;;;;;;;7.90;5.23;;;21.40;99.90;;;;;;5069580;28;20455;-53
2021/07/07 08:35:46;;;;;;;12.57;4.90;;;21.30;99.90;;;;;;5070188;28;20437;-53
2021/07/07 08:38:12;;;;;;;8.80;5.10;;;21.30;99.90;;;;;;5069727;28;20428;-53
2021/07/07 08:40:39;;;;;;;9.00;5.17;;;21.30;99.90;;;;;;5070047;28;20534;-53
2021/07/07 08:43:06;;;;;;;6.90;4.60;;;21.30;99.90;;;;;;5069660;28;20483;-53
2021/07/07 08:45:33;;;;;;;8.57;5.00;;;21.30;99.90;;;;;;5069668;28;20435;-54
2021/07/07 08:48:00;;;;;;;5.63;4.37;;;21.30;99.90;;;;;;5069753;28;20487;-54
2021/07/07 08:50:30;;;;;;;6.77;4.60;;;21.30;99.90;;;;;;5051285;28;20454;-53
2021/07/07 08:53:00;;;;;;;7.13;4.53;;;21.40;99.90;;;;;;5069435;28;20467;-53
2021/07/07 08:55:28;;;;;;;6.53;4.80;;;21.40;99.90;;;;;;5068839;28;20991;-53
2021/07/07 08:57:54;;;;;;;4.77;4.03;;;21.40;99.90;;;;;;5068794;28;20444;-53
2021/07/07 09:00:23;;;;;;;5.50;4.00;;;21.30;99.90;;;;;;5068605;28;20468;-53
2021/07/07 09:02:53;;;;;;;6.70;4.50;;;21.40;99.90;;;;;;5069119;28;20514;-53
2021/07/07 09:05:21;;;;;;;4.63;3.90;;;21.40;99.90;;;;;;5068800;28;20433;-53
2021/07/07 09:07:49;;;;;;;5.30;3.60;;;21.40;99.90;;;;;;5068492;28;20516;-54
2021/07/07 09:10:18;;;;;;;4.63;4.10;;;21.40;99.90;;;;;;5071465;28;20464;-53
2021/07/07 09:12:45;;;;;;;5.77;4.60;;;21.40;99.90;;;;;;5053907;28;20482;-53
2021/07/07 09:15:14;;;;;;;11.43;4.70;;;21.60;99.90;;;;;;5072124;28;20442;-53
2021/07/07 09:17:43;;;;;;;5.17;3.97;;;21.60;99.90;;;;;;5071717;28;20468;-53
2021/07/07 09:20:21;;;;;;;4.07;3.13;;;21.70;99.90;;;;;;5071794;28;20428;-53
2021/07/07 09:22:50;;;;;;;6.30;5.37;;;21.50;99.90;;;;;;5072031;28;20451;-54
2021/07/07 09:25:24;;;;;;;9.47;5.33;;;21.70;99.90;;;;;;5071809;28;20431;-53
2021/07/07 09:27:51;;;;;;;11.60;6.90;;;21.70;99.90;;;;;;5072134;28;20478;-54
2021/07/07 09:30:18;;;;;;;7.27;6.57;;;21.70;99.90;;;;;;5072968;28;20440;-53
2021/07/07 09:32:46;;;;;;;6.40;4.17;;;21.60;99.90;;;;;;5072310;28;20486;-54
2021/07/07 09:35:13;;;;;;;3.70;3.40;;;21.40;99.90;;;;;;5072291;28;20912;-54
2021/07/07 09:37:48;;;;;;;4.83;3.93;;;21.50;99.90;;;;;;5072335;28;20427;-54
2021/07/07 09:40:17;;;;;;;4.23;2.57;;;21.50;99.90;;;;;;5074455;28;20434;-54
2021/07/07 09:42:45;;;;;;;5.07;3.43;;;21.40;99.90;;;;;;5072971;28;20568;-53
2021/07/07 09:45:14;;;;;;;5.50;3.10;;;21.40;99.90;;;;;;5073199;28;20925;-54
2021/07/07 09:47:41;;;;;;;5.40;3.90;;;21.40;99.90;;;;;;5071861;28;20812;-54
2021/07/07 09:50:09;;;;;;;6.30;4.10;;;21.40;99.90;;;;;;5054242;28;20578;-54
2021/07/07 09:52:36;;;;;;;6.23;3.93;;;21.40;99.90;;;;;;5036259;28;1034062;-54
2021/07/07 09:55:08;;;;;;;5.20;3.70;;;21.40;99.90;;;;;;5072778;28;20320;-54
2021/07/07 09:57:44;;;;;;;5.23;3.00;;;21.40;99.90;;;;;;5054953;28;20529;-54
2021/07/07 10:00:13;;;;;;;8.13;3.67;;;21.30;99.90;;;;;;5072785;28;20549;-55
2021/07/07 10:02:41;;;;;;;5.83;3.20;;;21.30;99.90;;;;;;5072877;28;20461;-54
2021/07/07 10:05:09;;;;;;;5.70;3.90;;;21.30;99.90;;;;;;5072410;28;20442;-54
2021/07/07 10:07:36;;;;;;;4.93;3.40;;;21.30;99.90;;;;;;5072118;28;21027;-53
2021/07/07 10:10:04;;;;;;;5.90;3.50;;;21.30;99.90;;;;;;5071970;28;20516;-54
2021/07/07 10:12:31;;;;;;;6.70;2.93;;;21.40;99.90;;;;;;5072002;28;20810;-53
2021/07/07 10:15:00;;;;;;;6.40;3.07;;;21.20;99.90;;;;;;5072064;28;20436;-54
2021/07/07 10:17:27;;;;;;;6.23;3.30;;;21.40;99.90;;;;;;5072274;28;20439;-53
2021/07/07 10:19:56;;;;;;;4.17;3.40;;;21.40;99.90;;;;;;5071173;28;20441;-53
2021/07/07 10:22:57;;;;;;;5.70;3.10;;;21.40;99.90;;;;;;5071504;28;20681;-54
2021/07/07 10:25:26;;;;;;;5.80;3.23;;;21.60;99.90;;;;;;5053776;28;20459;-53
2021/07/07 10:27:56;;;;;;;5.13;3.00;;;21.60;99.90;;;;;;5072153;28;20478;-53
2021/07/07 10:30:48;;;;;;;8.20;3.67;;;21.70;99.90;;;;;;5071817;28;20438;-53
2021/07/07 10:33:16;;;;;;;5.97;4.03;;;21.80;99.90;;;;;;5071699;28;20473;-53
2021/07/07 10:35:43;;;;;;;4.60;2.80;;;21.80;99.90;;;;;;5071968;28;20433;-53
2021/07/07 10:38:10;;;;;;;4.80;2.97;;;21.80;99.90;;;;;;5071548;28;20499;-53
2021/07/07 10:40:40;;;;;;;6.63;3.50;;;22.00;99.90;;;;;;5053451;28;20476;-53
2021/07/07 10:43:07;;;;;;;3.37;2.67;;;22.00;99.90;;;;;;5071520;28;20908;-53
2021/07/07 10:45:37;;;;;;;4.50;3.57;;;22.00;99.90;;;;;;5072111;28;20799;-53
2021/07/07 10:48:25;;;;;;;3.27;2.50;;;22.00;99.90;;;;;;5070937;28;20498;-53
2021/07/07 10:50:52;;;;;;;5.93;2.20;;;22.00;99.90;;;;;;5071609;28;20428;-53
2021/07/07 10:53:24;;;;;;;3.50;2.63;;;22.00;99.90;;;;;;5087287;22;20504;-55
2021/07/07 10:55:50;;;;;;;4.50;2.70;;;22.00;99.90;;;;;;5052264;28;20445;-55
2021/07/07 10:58:28;;;;;;;3.07;2.10;;;22.00;99.90;;;;;;5051528;28;20464;-55
2021/07/07 11:00:57;;;;;;;5.30;2.20;;;22.00;99.90;;;;;;5051958;28;21019;-56
2021/07/07 11:03:35;;;;;;;3.10;2.37;;;22.10;99.90;;;;;;5051562;28;20984;-53
2021/07/07 11:06:31;;;;;;;3.40;1.90;;;22.10;99.90;;;;;;5051816;28;20433;-54
2021/07/07 11:09:44;;;;;;;4.13;2.43;;;22.20;99.90;;;;;;5060591;28;20995;-54
2021/07/07 11:13:12;;;;;;;3.30;3.00;;;22.20;99.90;;;;;;5053045;28;20456;-54
2021/07/07 11:15:40;;;;;;;5.57;2.90;;;22.20;99.90;;;;;;5051902;28;20430;-53
2021/07/07 11:18:18;;;;;;;4.33;2.80;;;22.20;99.90;;;;;;5032952;28;20451;-53
2021/07/07 11:20:54;;;;;;;6.93;3.33;;;22.30;99.90;;;;;;5051898;28;20927;-54
2021/07/07 11:23:21;;;;;;;4.43;3.00;;;22.30;99.90;;;;;;5051061;28;20983;-54
2021/07/07 11:25:48;;;;;;;7.53;2.90;;;22.30;99.90;;;;;;5033350;28;20475;-56
2021/07/07 11:28:16;;;;;;;4.40;2.97;;;22.40;99.90;;;;;;5051011;28;20481;-53
2021/07/07 11:30:43;;;;;;;2.93;2.60;;;22.40;99.90;;;;;;5051659;28;20962;-53
2021/07/07 11:33:11;;;;;;;5.00;3.20;;;22.50;99.90;;;;;;5050614;28;20839;-53
2021/07/07 11:35:40;;;;;;;3.47;2.80;;;22.50;99.90;;;;;;5051946;28;20430;-53
2021/07/07 11:38:08;;;;;;;6.10;3.00;;;22.70;99.90;;;;;;5050907;28;20948;-54
2021/07/07 11:40:37;;;;;;;3.67;2.70;;;22.70;99.90;;;;;;5050971;28;20532;-53
2021/07/07 11:43:05;;;;;;;3.73;3.10;;;22.90;99.90;;;;;;5050787;28;20460;-53
2021/07/07 11:45:35;;;;;;;4.43;2.37;;;23.00;99.90;;;;;;5032987;28;20490;-53
2021/07/07 11:48:07;;;;;;;4.30;3.07;;;23.00;99.90;;;;;;5050791;28;20833;-56
2021/07/07 11:50:38;;;;;;;4.47;2.80;;;23.10;99.90;;;;;;5051020;28;20434;-53
2021/07/07 11:53:07;;;;;;;3.63;2.53;;;23.10;99.90;;;;;;5032605;28;20482;-54
2021/07/07 11:55:57;;;;;;;4.83;3.80;;;23.20;99.90;;;;;;5050887;28;20860;-53
2021/07/07 11:58:27;;;;;;;5.57;4.23;;;23.20;99.90;;;;;;5050777;28;20790;-53
2021/07/07 12:00:55;;;;;;;5.70;2.63;;;23.30;99.90;;;;;;5050944;28;20868;-53
2021/07/07 12:03:24;;;;;;;3.00;2.70;;;23.40;99.90;;;;;;5051037;28;20459;-53
2021/07/07 12:05:54;;;;;;;7.63;4.40;;;23.50;99.90;;;;;;5032488;28;20447;-57
2021/07/07 12:08:23;;;;;;;4.67;3.53;;;23.70;99.90;;;;;;5049996;28;20563;-56
2021/07/07 12:10:51;;;;;;;3.40;2.33;;;23.80;99.90;;;;;;5050979;28;20437;-54
2021/07/07 12:13:23;;;;;;;3.73;2.40;;;24.00;99.90;;;;;;5050571;28;20485;-53
2021/07/07 12:15:50;;;;;;;2.50;1.97;;;24.10;99.90;;;;;;5050609;28;20487;-53
2021/07/07 12:18:28;;;;;;;7.03;3.00;;;24.20;99.90;;;;;;5050197;28;20446;-55
2021/07/07 12:20:56;;;;;;;3.30;1.87;;;24.30;99.90;;;;;;5050731;28;20421;-54
2021/07/07 12:23:24;;;;;;;3.87;2.50;;;24.50;99.90;;;;;;5050529;28;20842;-57
2021/07/07 12:26:01;;;;;;;3.60;2.20;;;24.50;99.90;;;;;;5050395;28;20980;-54
2021/07/07 12:28:29;;;;;;;4.57;2.60;;;24.60;99.90;;;;;;5050465;28;20487;-53
2021/07/07 12:30:56;;;;;;;4.30;2.93;;;24.50;99.90;;;;;;5050416;28;20891;-54
2021/07/07 12:33:24;;;;;;;3.60;2.87;;;24.40;99.90;;;;;;5050727;28;20464;-55
2021/07/07 12:35:51;;;;;;;5.70;3.37;;;24.40;99.90;;;;;;5050508;28;20605;-52
2021/07/07 12:38:19;;;;;;;5.97;3.40;;;24.30;99.90;;;;;;5050054;28;20433;-56
2021/07/07 12:40:54;;;;;;;3.20;2.50;;;24.40;99.90;;;;;;5050263;28;20456;-56
2021/07/07 12:43:27;;;;;;;3.63;2.20;;;24.50;99.90;;;;;;5050398;28;20543;-54
2021/07/07 12:46:03;;;;;;;3.13;1.80;;;24.50;99.80;;;;;;5036528;28;20552;-54
2021/07/07 12:48:30;;;;;;;2.80;2.17;;;24.60;98.90;;;;;;5054364;28;20476;-54
2021/07/07 12:50:57;;;;;;;3.40;2.60;;;24.70;99.00;;;;;;5054559;28;20481;-54